createdAt,value
2022-10-20T00:01:42.723Z,59.76
2022-10-20T00:04:17.698Z,59.79
2022-10-20T00:06:49.213Z,60.13
2022-10-20T00:09:20.706Z,59.77
2022-10-20T00:11:50.864Z,59.80
2022-10-20T00:14:19.210Z,59.86
2022-10-20T00:16:49.585Z,60.16
2022-10-20T00:19:19.713Z,60.20
2022-10-20T00:21:51.622Z,60.20
2022-10-20T00:24:22.731Z,60.18
2022-10-20T00:26:50.731Z,59.92
2022-10-20T00:31:50.916Z,60.22
2022-10-20T00:34:19.747Z,60.01
2022-10-20T00:36:51.335Z,60.25
2022-10-20T00:39:23.894Z,60.17
2022-10-20T00:41:52.089Z,60.44
2022-10-20T00:44:51.058Z,60.87
2022-10-20T00:47:36.053Z,60.40
2022-10-20T00:50:10.001Z,60.45
2022-10-20T00:52:42.558Z,60.26
2022-10-20T00:55:12.651Z,60.27
2022-10-20T00:57:43.824Z,60.51
2022-10-20T01:00:12.322Z,60.40
2022-10-20T01:02:40.221Z,60.59
2022-10-20T01:05:08.714Z,60.73
2022-10-20T01:07:37.769Z,60.15
2022-10-20T01:10:07.321Z,60.57
2022-10-20T01:13:05.430Z,60.38
2022-10-20T01:15:39.533Z,60.21
2022-10-20T01:18:19.351Z,60.43
2022-10-20T01:21:06.197Z,60.21
2022-10-20T01:23:57.146Z,60.29
2022-10-20T01:27:02.805Z,60.62
2022-10-20T01:29:46.338Z,60.29
2022-10-20T01:32:25.357Z,60.28
2022-10-20T01:35:13.814Z,60.55
2022-10-20T01:38:02.414Z,60.33
2022-10-20T01:40:36.117Z,60.19
2022-10-20T01:43:08.639Z,60.30
2022-10-20T01:45:40.343Z,60.30
2022-10-20T01:48:11.911Z,60.48
2022-10-20T01:50:41.666Z,60.36
2022-10-20T01:53:10.600Z,60.68
2022-10-20T01:55:40.115Z,60.38
2022-10-20T01:58:20.470Z,60.20
2022-10-20T02:00:53.373Z,60.76
2022-10-20T02:03:54.929Z,60.29
2022-10-20T02:06:50.320Z,60.41
2022-10-20T02:09:29.669Z,60.71
2022-10-20T02:12:08.154Z,61.00
2022-10-20T02:14:37.960Z,60.92
2022-10-20T02:17:09.617Z,60.73
2022-10-20T02:19:41.410Z,60.74
2022-10-20T02:22:10.946Z,60.75
2022-10-20T02:24:44.722Z,60.80
2022-10-20T02:27:22.892Z,60.96
2022-10-20T02:30:05.309Z,60.77
2022-10-20T02:32:39.599Z,60.81
2022-10-20T02:35:13.007Z,60.63
2022-10-20T02:37:41.156Z,60.90
2022-10-20T02:40:09.110Z,61.20
2022-10-20T02:42:38.971Z,61.11
2022-10-20T02:45:07.420Z,61.43
2022-10-20T02:47:43.070Z,60.92
2022-10-20T02:50:10.776Z,61.19
2022-10-20T02:52:45.827Z,61.15
2022-10-20T02:55:15.706Z,61.32
2022-10-20T02:57:42.975Z,61.15
2022-10-20T03:00:16.166Z,61.43
2022-10-20T03:02:43.355Z,61.08
2022-10-20T03:05:10.517Z,61.40
2022-10-20T03:07:38.043Z,61.74
2022-10-20T03:10:06.274Z,61.93
2022-10-20T03:12:33.513Z,61.90
2022-10-20T03:15:00.721Z,61.82
2022-10-20T03:17:28.077Z,61.81
2022-10-20T03:19:55.293Z,61.95
2022-10-20T03:22:22.620Z,61.67
2022-10-20T03:24:49.792Z,61.82
2022-10-20T03:27:17.156Z,61.71
2022-10-20T03:29:46.627Z,61.55
2022-10-20T03:32:13.948Z,61.69
2022-10-20T03:34:43.762Z,61.52
2022-10-20T03:37:11.090Z,61.72
2022-10-20T03:39:41.152Z,62.15
2022-10-20T03:42:10.845Z,62.34
2022-10-20T03:44:40.131Z,61.90
2022-10-20T03:47:10.130Z,62.24
2022-10-20T03:49:39.652Z,62.07
2022-10-20T03:52:06.792Z,62.39
2022-10-20T03:54:36.243Z,62.28
2022-10-20T03:57:06.879Z,62.00
2022-10-20T04:02:41.949Z,62.52
2022-10-20T04:05:13.187Z,62.67
2022-10-20T04:07:45.154Z,62.33
2022-10-20T04:10:15.478Z,62.33
2022-10-20T04:12:46.469Z,62.28
2022-10-20T04:15:15.046Z,62.20
2022-10-20T04:17:46.863Z,62.25
2022-10-20T04:20:15.244Z,61.83
2022-10-20T04:22:44.435Z,61.82
2022-10-20T04:25:15.347Z,62.34
2022-10-20T04:27:44.572Z,62.09
2022-10-20T04:30:13.363Z,62.15
2022-10-20T04:32:44.248Z,61.97
2022-10-20T04:35:15.711Z,61.99
2022-10-20T04:37:43.914Z,62.04
2022-10-20T04:40:14.885Z,61.93
2022-10-20T04:42:46.263Z,62.25
2022-10-20T04:45:16.330Z,61.86
2022-10-20T04:47:48.585Z,62.08
2022-10-20T04:50:18.075Z,61.91
2022-10-20T04:53:02.137Z,62.04
2022-10-20T04:55:32.374Z,61.91
2022-10-20T04:58:04.681Z,61.80
2022-10-20T05:00:32.981Z,61.54
2022-10-20T05:03:05.601Z,62.08
2022-10-20T05:05:34.381Z,62.01
2022-10-20T05:08:02.894Z,61.95
2022-10-20T05:10:33.190Z,61.84
2022-10-20T05:13:04.023Z,61.62
2022-10-20T05:15:33.934Z,61.79
2022-10-20T05:18:02.372Z,61.55
2022-10-20T05:20:36.725Z,61.77
2022-10-20T05:23:16.344Z,62.29
2022-10-20T05:25:50.281Z,62.04
2022-10-20T05:28:21.736Z,61.86
2022-10-20T05:30:53.853Z,62.25
2022-10-20T05:33:23.359Z,61.99
2022-10-20T05:35:51.625Z,61.92
2022-10-20T05:38:19.951Z,62.01
2022-10-20T05:40:47.567Z,62.24
2022-10-20T05:43:17.202Z,62.57
2022-10-20T05:45:45.099Z,62.28
2022-10-20T05:48:18.247Z,62.25
2022-10-20T05:53:18.937Z,62.71
2022-10-20T05:55:46.694Z,62.91
2022-10-20T05:58:16.807Z,62.22
2022-10-20T06:00:53.858Z,62.39
2022-10-20T06:03:24.856Z,62.30
2022-10-20T06:06:00.105Z,62.47
2022-10-20T06:08:35.649Z,62.17
2022-10-20T06:11:12.400Z,62.06
2022-10-20T06:13:40.574Z,62.17
2022-10-20T06:16:20.513Z,61.69
2022-10-20T06:18:48.845Z,62.22
2022-10-20T06:21:20.364Z,61.79
2022-10-20T06:23:49.751Z,62.06
2022-10-20T06:26:20.872Z,61.97
2022-10-20T06:28:52.128Z,61.76
2022-10-20T06:31:28.123Z,61.96
2022-10-20T06:33:59.343Z,62.15
2022-10-20T06:36:30.517Z,62.05
2022-10-20T06:39:00.557Z,61.78
2022-10-20T06:41:29.707Z,62.05
2022-10-20T06:44:01.050Z,62.35
2022-10-20T06:46:33.310Z,62.11
2022-10-20T06:49:04.140Z,62.03
2022-10-20T06:51:32.789Z,61.99
2022-10-20T06:54:01.585Z,61.54
2022-10-20T06:56:33.788Z,61.67
2022-10-20T06:59:03.078Z,61.49
2022-10-20T07:01:34.222Z,61.03
2022-10-20T07:04:05.795Z,61.03
2022-10-20T07:06:45.262Z,60.41
2022-10-20T07:09:18.471Z,60.67
2022-10-20T07:11:50.898Z,60.85
2022-10-20T07:14:21.331Z,60.28
2022-10-20T07:16:51.150Z,60.75
2022-10-20T07:19:21.804Z,60.71
2022-10-20T07:21:49.636Z,59.62
2022-10-20T07:24:17.603Z,59.63
2022-10-20T07:26:45.433Z,59.59
2022-10-20T07:29:16.356Z,59.46
2022-10-20T07:31:47.140Z,59.71
2022-10-20T07:34:25.170Z,59.25
2022-10-20T07:36:54.089Z,58.99
2022-10-20T07:39:22.023Z,59.11
2022-10-20T07:41:50.155Z,58.99
2022-10-20T07:44:24.536Z,58.73
2022-10-20T07:46:52.930Z,58.30
2022-10-20T07:52:09.633Z,58.27
2022-10-20T07:54:37.838Z,57.69
2022-10-20T07:57:08.442Z,57.01
2022-10-20T07:59:39.892Z,57.23
2022-10-20T08:02:08.728Z,57.08
2022-10-20T08:04:39.372Z,56.78
2022-10-20T08:07:08.081Z,56.63
2022-10-20T08:09:42.488Z,56.65
2022-10-20T08:12:16.282Z,56.55
2022-10-20T08:14:45.529Z,55.59
2022-10-20T08:17:13.457Z,55.19
2022-10-20T08:22:28.798Z,54.38
2022-10-20T08:24:59.983Z,54.38
2022-10-20T08:27:27.961Z,53.99
2022-10-20T08:30:06.088Z,53.70
2022-10-20T08:32:42.981Z,53.69
2022-10-20T08:35:13.577Z,53.33
2022-10-20T08:37:48.577Z,53.43
2022-10-20T08:40:21.868Z,53.30
2022-10-20T08:42:51.956Z,53.52
2022-10-20T08:45:25.263Z,53.71
2022-10-20T08:47:59.835Z,53.54
2022-10-20T08:50:31.227Z,54.18
2022-10-20T08:53:01.453Z,54.04
2022-10-20T08:55:34.078Z,54.39
2022-10-20T08:58:16.259Z,54.24
2022-10-20T09:00:47.682Z,54.60
2022-10-20T09:03:26.257Z,54.06
2022-10-20T09:06:16.962Z,54.38
2022-10-20T09:08:45.659Z,54.18
2022-10-20T09:11:24.726Z,53.90
2022-10-20T09:13:54.903Z,53.86
2022-10-20T09:16:41.997Z,53.46
2022-10-20T09:19:21.289Z,53.74
2022-10-20T09:21:59.570Z,53.34
2022-10-20T09:24:30.585Z,53.39
2022-10-20T09:27:23.919Z,53.19
2022-10-20T09:29:52.261Z,53.14
2022-10-20T09:35:21.410Z,52.05
2022-10-20T09:38:36.282Z,51.31
2022-10-20T09:41:26.351Z,51.21
2022-10-20T09:43:58.058Z,50.82
2022-10-20T09:46:40.211Z,49.95
2022-10-20T09:49:09.181Z,50.03
2022-10-20T09:51:37.590Z,49.91
2022-10-20T09:54:11.496Z,49.76
2022-10-20T09:56:44.731Z,49.94
2022-10-20T09:59:37.089Z,49.18
2022-10-20T10:02:20.666Z,49.42
2022-10-20T10:04:53.752Z,49.37
2022-10-20T10:07:28.020Z,49.12
2022-10-20T10:10:08.335Z,48.89
2022-10-20T10:12:37.798Z,49.58
2022-10-20T10:15:24.489Z,48.86
2022-10-20T10:17:53.432Z,49.38
2022-10-20T10:20:28.344Z,48.87
2022-10-20T10:23:15.773Z,48.81
2022-10-20T10:25:43.594Z,49.79
2022-10-20T10:28:24.113Z,49.88
2022-10-20T10:31:12.139Z,49.55
2022-10-20T10:33:40.151Z,50.07
2022-10-20T10:36:23.773Z,49.69
2022-10-20T10:38:55.560Z,50.35
2022-10-20T10:41:37.802Z,49.57
2022-10-20T10:44:40.093Z,50.11
2022-10-20T10:47:08.221Z,50.10
2022-10-20T10:49:43.359Z,49.34
2022-10-20T10:52:35.085Z,48.83
2022-10-20T10:55:43.666Z,48.11
2022-10-20T10:58:37.228Z,47.33
2022-10-20T11:01:28.262Z,47.70
2022-10-20T11:04:31.224Z,46.51
2022-10-20T11:07:07.481Z,46.95
2022-10-20T11:10:22.658Z,46.96
2022-10-20T11:13:24.433Z,49.64
2022-10-20T11:16:29.816Z,51.04
2022-10-20T11:19:20.628Z,51.72
2022-10-20T11:22:15.851Z,51.59
2022-10-20T11:25:14.063Z,51.38
2022-10-20T11:27:46.265Z,51.35
2022-10-20T11:30:19.982Z,52.50
2022-10-20T11:32:54.032Z,53.45
2022-10-20T11:35:46.299Z,53.10
2022-10-20T11:38:22.216Z,53.13
2022-10-20T11:40:59.670Z,52.57
2022-10-20T11:44:02.506Z,52.86
2022-10-20T11:46:44.561Z,52.32
2022-10-20T11:49:13.028Z,52.69
2022-10-20T11:52:38.662Z,52.00
2022-10-20T11:55:24.802Z,52.28
2022-10-20T11:58:16.989Z,51.96
2022-10-20T12:00:59.655Z,51.73
2022-10-20T12:03:54.699Z,51.89
2022-10-20T12:06:50.213Z,51.65
2022-10-20T12:09:46.135Z,51.34
2022-10-20T12:13:03.572Z,51.72
2022-10-20T12:15:34.505Z,50.74
2022-10-20T12:18:09.793Z,50.61
2022-10-20T12:20:37.671Z,50.03
2022-10-20T12:23:07.736Z,50.52
2022-10-20T12:25:39.389Z,49.77
2022-10-20T12:28:25.504Z,49.58
2022-10-20T12:31:00.781Z,49.08
2022-10-20T12:33:39.759Z,50.11
2022-10-20T12:36:37.681Z,50.31
2022-10-20T12:39:18.441Z,49.48
2022-10-20T12:42:03.409Z,50.48
2022-10-20T12:44:47.035Z,50.92
2022-10-20T12:47:36.963Z,50.92
2022-10-20T12:50:24.471Z,50.04
2022-10-20T12:52:52.615Z,50.40
2022-10-20T12:55:34.337Z,49.80
2022-10-20T12:58:35.156Z,49.29
2022-10-20T13:01:06.849Z,49.54
2022-10-20T13:03:41.748Z,49.24
2022-10-20T13:06:25.122Z,48.88
2022-10-20T13:09:10.806Z,48.31
2022-10-20T13:11:47.536Z,48.98
2022-10-20T13:14:26.016Z,48.79
2022-10-20T13:17:17.110Z,47.56
2022-10-20T13:20:01.603Z,47.52
2022-10-20T13:22:54.967Z,47.15
2022-10-20T13:25:49.218Z,47.75
2022-10-20T13:28:24.457Z,47.85
2022-10-20T13:31:03.244Z,48.57
2022-10-20T13:34:03.477Z,48.16
2022-10-20T13:36:50.662Z,48.53
2022-10-20T13:39:51.103Z,48.75
2022-10-20T13:42:38.771Z,48.64
2022-10-20T13:45:49.489Z,48.82
2022-10-20T13:48:26.065Z,49.14
2022-10-20T13:51:08.902Z,48.80
2022-10-20T13:53:44.566Z,48.77
2022-10-20T13:56:17.976Z,49.00
2022-10-20T13:59:05.484Z,48.42
2022-10-20T14:01:38.814Z,48.93
2022-10-20T14:04:28.102Z,49.18
2022-10-20T14:07:01.555Z,49.26
2022-10-20T14:09:42.181Z,49.18
2022-10-20T14:12:26.903Z,49.17
2022-10-20T14:15:01.430Z,49.19
2022-10-20T14:17:38.492Z,49.49
2022-10-20T14:20:18.452Z,49.43
2022-10-20T14:22:49.899Z,49.09
2022-10-20T14:25:21.102Z,49.61
2022-10-20T14:27:53.983Z,49.99
2022-10-20T14:30:24.976Z,49.76
2022-10-20T14:32:57.559Z,49.65
2022-10-20T14:35:40.458Z,49.42
2022-10-20T14:38:19.142Z,49.81
2022-10-20T14:41:00.567Z,50.10
2022-10-20T14:43:49.123Z,49.82
2022-10-20T14:46:35.993Z,49.33
2022-10-20T14:49:14.141Z,48.75
2022-10-20T14:51:56.248Z,48.05
2022-10-20T14:57:16.918Z,47.81
2022-10-20T14:59:56.858Z,48.03
2022-10-20T15:02:33.737Z,47.81
2022-10-20T15:05:33.822Z,48.21
2022-10-20T15:08:29.974Z,48.15
2022-10-20T15:11:04.848Z,48.49
2022-10-20T15:13:36.686Z,48.55
2022-10-20T15:16:11.461Z,48.78
2022-10-20T15:18:40.289Z,48.75
2022-10-20T15:21:09.422Z,49.23
2022-10-20T15:23:38.158Z,49.10
2022-10-20T15:26:11.472Z,48.88
2022-10-20T15:28:41.758Z,48.98
2022-10-20T15:31:27.419Z,49.30
2022-10-20T15:33:57.913Z,48.01
2022-10-20T15:36:41.801Z,47.53
2022-10-20T15:39:13.055Z,48.29
2022-10-20T15:41:42.757Z,48.13
2022-10-20T15:44:16.303Z,48.41
2022-10-20T15:46:48.194Z,48.78
2022-10-20T15:49:19.474Z,48.76
2022-10-20T15:51:51.371Z,49.63
2022-10-20T15:54:21.624Z,49.78
2022-10-20T15:56:50.728Z,49.69
2022-10-20T15:59:19.531Z,50.17
2022-10-20T16:01:47.488Z,50.28
2022-10-20T16:04:24.572Z,50.34
2022-10-20T16:07:02.810Z,50.55
2022-10-20T16:09:31.635Z,50.70
2022-10-20T16:11:59.515Z,50.78
2022-10-20T16:14:30.993Z,50.83
2022-10-20T16:17:01.477Z,51.27
2022-10-20T16:19:31.592Z,50.89
2022-10-20T16:22:02.300Z,51.53
2022-10-20T16:24:31.274Z,51.29
2022-10-20T16:27:04.461Z,51.31
2022-10-20T16:29:33.143Z,51.05
2022-10-20T16:32:01.720Z,51.00
2022-10-20T16:34:32.946Z,51.22
2022-10-20T16:37:01.482Z,51.47
2022-10-20T16:39:33.979Z,50.81
2022-10-20T16:42:02.211Z,50.88
2022-10-20T16:44:31.362Z,50.97
2022-10-20T16:47:03.110Z,50.89
2022-10-20T16:49:31.249Z,50.90
2022-10-20T16:52:03.503Z,51.25
2022-10-20T16:54:34.864Z,51.04
2022-10-20T16:57:03.961Z,51.10
2022-10-20T16:59:34.453Z,50.72
2022-10-20T17:02:08.173Z,51.09
2022-10-20T17:04:44.235Z,50.75
2022-10-20T17:07:13.015Z,50.76
2022-10-20T17:09:41.817Z,51.22
2022-10-20T17:12:11.027Z,51.90
2022-10-20T17:14:41.744Z,52.26
2022-10-20T17:17:09.965Z,52.53
2022-10-20T17:19:41.475Z,53.45
2022-10-20T17:24:44.117Z,53.41
2022-10-20T17:27:12.295Z,54.65
2022-10-20T17:29:41.684Z,54.88
2022-10-20T17:32:12.246Z,56.13
2022-10-20T17:34:51.622Z,56.92
2022-10-20T17:37:22.080Z,56.94
2022-10-20T17:39:50.194Z,57.47
2022-10-20T17:42:18.524Z,58.42
2022-10-20T17:44:48.968Z,59.13
2022-10-20T17:47:20.614Z,58.15
2022-10-20T17:49:49.406Z,57.83
2022-10-20T17:52:18.090Z,58.26
2022-10-20T17:54:54.207Z,58.22
2022-10-20T17:57:26.009Z,58.43
2022-10-20T17:59:56.395Z,57.86
2022-10-20T18:02:26.003Z,57.78
2022-10-20T18:04:54.108Z,58.55
2022-10-20T18:07:28.894Z,58.08
2022-10-20T18:10:06.275Z,57.89
2022-10-20T18:12:38.112Z,58.18
2022-10-20T18:15:14.538Z,59.28
2022-10-20T18:17:45.995Z,61.00
2022-10-20T18:20:15.880Z,60.44
2022-10-20T18:22:44.857Z,61.78
2022-10-20T18:25:16.689Z,61.04
2022-10-20T18:27:45.111Z,61.20
2022-10-20T18:30:19.038Z,61.06
2022-10-20T18:32:47.576Z,61.40
2022-10-20T18:35:17.614Z,61.48
2022-10-20T18:37:46.884Z,61.17
2022-10-20T18:40:17.109Z,62.07
2022-10-20T18:42:45.874Z,61.46
2022-10-20T18:45:18.718Z,61.81
2022-10-20T18:48:11.351Z,62.07
2022-10-20T18:50:46.492Z,62.38
2022-10-20T18:53:16.579Z,62.55
2022-10-20T18:55:48.263Z,62.34
2022-10-20T18:58:19.218Z,63.20
2022-10-20T19:00:56.803Z,62.52
2022-10-20T19:03:25.106Z,62.96
2022-10-20T19:08:59.471Z,62.92
2022-10-20T19:11:34.701Z,63.45
2022-10-20T19:14:03.581Z,63.12
2022-10-20T19:16:45.637Z,62.86
2022-10-20T19:19:19.548Z,62.79
2022-10-20T19:21:49.013Z,62.85
2022-10-20T19:24:23.215Z,63.37
2022-10-20T19:29:50.692Z,63.65
2022-10-20T19:32:22.553Z,64.17
2022-10-20T19:34:50.972Z,64.43
2022-10-20T19:37:22.386Z,63.82
2022-10-20T19:39:54.287Z,63.33
2022-10-20T19:42:22.758Z,64.11
2022-10-20T19:44:56.389Z,65.00
2022-10-20T19:47:30.085Z,63.61
2022-10-20T19:50:01.350Z,64.24
2022-10-20T19:52:29.599Z,65.26
2022-10-20T19:54:59.209Z,64.21
2022-10-20T19:57:30.835Z,63.94
2022-10-20T19:59:59.403Z,64.06
2022-10-20T20:02:31.306Z,65.20
2022-10-20T20:04:59.564Z,66.46
2022-10-20T20:07:27.442Z,66.07
2022-10-20T20:09:55.394Z,67.09
2022-10-20T20:12:24.278Z,66.09
2022-10-20T20:14:53.267Z,66.86
2022-10-20T20:17:24.997Z,65.86
2022-10-20T20:19:54.897Z,66.47
2022-10-20T20:22:22.528Z,65.85
2022-10-20T20:24:50.498Z,65.68
2022-10-20T20:27:18.519Z,65.44
2022-10-20T20:50:12.341Z,64.54
2022-10-20T20:52:47.257Z,64.48
2022-10-20T20:55:18.316Z,64.69
2022-10-20T20:57:46.652Z,64.32
2022-10-20T21:00:15.441Z,64.31
2022-10-20T21:02:48.077Z,64.16
2022-10-20T21:05:16.780Z,63.84
2022-10-20T21:07:44.897Z,63.36
2022-10-20T21:10:19.319Z,63.45
2022-10-20T21:12:50.578Z,63.40
2022-10-20T21:15:22.348Z,63.84
2022-10-20T21:17:50.720Z,63.58
2022-10-20T21:27:13.858Z,63.34
2022-10-20T21:30:03.172Z,63.35
2022-10-20T21:32:37.283Z,63.43
2022-10-20T21:35:18.462Z,63.65
2022-10-20T22:03:17.581Z,57.54
2022-10-20T22:05:53.901Z,56.86
2022-10-20T22:08:36.918Z,56.99
2022-10-20T22:11:36.727Z,57.68
2022-10-20T22:14:20.392Z,57.08
2022-10-20T22:17:00.146Z,56.77
2022-10-20T22:19:37.790Z,57.06
2022-10-20T22:22:16.319Z,56.74
2022-10-20T22:24:58.941Z,56.59
2022-10-20T22:27:42.370Z,56.73
2022-10-20T22:30:31.625Z,56.72
2022-10-20T22:33:23.310Z,56.63
2022-10-20T22:36:01.734Z,57.01
2022-10-20T22:38:45.528Z,56.90
2022-10-20T22:41:35.007Z,57.09
2022-10-20T22:44:17.343Z,57.34
2022-10-20T22:46:56.472Z,57.62
2022-10-20T22:49:37.185Z,57.47
2022-10-20T22:52:23.977Z,57.03
2022-10-20T22:54:59.709Z,57.33
2022-10-20T22:57:49.536Z,56.80
2022-10-20T23:00:24.140Z,56.40
2022-10-20T23:02:58.257Z,56.25
2022-10-20T23:05:37.904Z,55.82
2022-10-20T23:08:17.250Z,56.24
2022-10-20T23:11:05.688Z,55.00
2022-10-20T23:13:47.724Z,54.89
2022-10-20T23:16:37.832Z,54.83
2022-10-20T23:19:16.358Z,54.79
2022-10-20T23:21:59.650Z,54.23
2022-10-20T23:24:41.105Z,54.34
2022-10-20T23:27:26.381Z,54.00
2022-10-20T23:30:06.792Z,53.85
2022-10-20T23:32:50.889Z,53.56
2022-10-20T23:35:49.125Z,53.52
2022-10-20T23:38:36.307Z,53.44
2022-10-20T23:41:18.557Z,53.68
2022-10-20T23:44:01.625Z,53.53
2022-10-20T23:46:47.508Z,52.58
2022-10-20T23:49:27.484Z,52.20
2022-10-20T23:52:04.555Z,52.82
2022-10-20T23:54:45.789Z,52.33
2022-10-20T23:57:25.831Z,52.29
